createdAt,value
2018-09-29T00:00:03.893Z,11.9
2018-09-29T00:01:05.256Z,11.9
2018-09-29T00:02:06.611Z,11.9
2018-09-29T00:03:08.002Z,11.8
2018-09-29T00:04:09.310Z,11.7
2018-09-29T00:05:10.677Z,11.7
2018-09-29T00:06:12.036Z,11.7
2018-09-29T00:07:13.395Z,11.6
2018-09-29T00:08:14.746Z,11.6
2018-09-29T00:09:16.121Z,11.6
2018-09-29T00:10:17.546Z,11.4
2018-09-29T00:11:18.799Z,11.4
2018-09-29T00:12:20.144Z,11.3
2018-09-29T00:13:21.509Z,11.4
2018-09-29T00:14:22.856Z,11.3
2018-09-29T00:15:24.225Z,11.4
2018-09-29T00:16:25.590Z,11.3
2018-09-29T00:17:26.921Z,11.3
2018-09-29T00:18:28.288Z,11.3
2018-09-29T00:19:29.629Z,11.1
2018-09-29T00:20:31.001Z,11.0
2018-09-29T00:21:32.346Z,11.0
2018-09-29T00:22:33.718Z,11.0
2018-09-29T00:23:35.075Z,11.0
2018-09-29T00:24:36.424Z,11.0
2018-09-29T00:25:37.775Z,11.0
2018-09-29T00:26:39.134Z,11.0
2018-09-29T00:27:40.485Z,11.0
2018-09-29T00:28:41.845Z,10.9
2018-09-29T00:29:43.803Z,10.9
2018-09-29T00:30:45.149Z,10.9
2018-09-29T00:31:46.520Z,10.9
2018-09-29T00:32:47.866Z,10.8
2018-09-29T00:33:49.234Z,10.7
2018-09-29T00:34:50.593Z,10.7
2018-09-29T00:35:51.953Z,10.7
2018-09-29T00:36:53.315Z,10.6
2018-09-29T00:37:54.671Z,10.5
2018-09-29T00:38:56.022Z,10.5
2018-09-29T00:39:57.372Z,10.5
2018-09-29T00:40:58.743Z,10.5
2018-09-29T00:42:00.105Z,10.4
2018-09-29T00:43:01.450Z,10.4
2018-09-29T00:44:02.835Z,10.4
2018-09-29T00:45:04.201Z,10.4
2018-09-29T00:46:05.555Z,10.3
2018-09-29T00:47:06.904Z,10.3
2018-09-29T00:48:08.249Z,10.3
2018-09-29T00:49:09.615Z,10.3
2018-09-29T00:50:10.961Z,10.2
2018-09-29T00:51:12.320Z,10.2
2018-09-29T00:52:13.669Z,10.2
2018-09-29T00:53:15.029Z,10.2
2018-09-29T00:54:16.380Z,10.1
2018-09-29T00:55:17.742Z,10.1
2018-09-29T00:56:19.105Z,10.1
2018-09-29T00:57:20.456Z,10.0
2018-09-29T00:58:21.809Z,10.0
2018-09-29T00:59:23.171Z,10.0
2018-09-29T01:00:24.534Z,10.0
2018-09-29T01:01:25.880Z,9.9
2018-09-29T01:02:27.238Z,10.0
2018-09-29T01:03:28.593Z,9.9
2018-09-29T01:04:29.949Z,9.9
2018-09-29T01:05:32.206Z,9.9
2018-09-29T01:06:33.557Z,9.9
2018-09-29T01:07:34.929Z,9.9
2018-09-29T01:08:36.275Z,9.8
2018-09-29T01:09:37.621Z,9.8
2018-09-29T01:10:38.975Z,9.8
2018-09-29T01:11:40.326Z,9.8
2018-09-29T01:12:41.685Z,9.7
2018-09-29T01:13:43.041Z,9.7
2018-09-29T01:14:44.396Z,9.7
2018-09-29T01:15:45.749Z,9.6
2018-09-29T01:16:47.099Z,9.6
2018-09-29T01:17:48.479Z,9.6
2018-09-29T01:18:49.825Z,9.6
2018-09-29T01:19:51.184Z,9.6
2018-09-29T01:20:52.526Z,9.5
2018-09-29T01:21:53.875Z,9.6
2018-09-29T01:22:55.235Z,9.5
2018-09-29T01:23:56.585Z,9.5
2018-09-29T01:24:57.942Z,9.5
2018-09-29T01:25:59.297Z,9.6
2018-09-29T01:27:01.518Z,9.6
2018-09-29T01:28:02.867Z,9.6
2018-09-29T01:29:04.229Z,9.6
2018-09-29T01:30:05.595Z,9.6
2018-09-29T01:31:06.946Z,9.6
2018-09-29T01:32:08.301Z,9.6
2018-09-29T01:33:09.645Z,9.7
2018-09-29T01:34:11.004Z,9.7
2018-09-29T01:35:12.358Z,9.8
2018-09-29T01:36:13.706Z,9.8
2018-09-29T01:37:15.062Z,9.8
2018-09-29T01:38:16.408Z,9.9
2018-09-29T01:39:17.773Z,10.0
2018-09-29T01:40:19.122Z,9.9
2018-09-29T01:41:20.479Z,9.9
2018-09-29T01:42:21.836Z,9.9
2018-09-29T01:43:23.199Z,10.0
2018-09-29T01:44:24.543Z,9.9
2018-09-29T01:45:25.901Z,9.9
2018-09-29T01:46:27.252Z,9.9
2018-09-29T01:47:28.606Z,9.9
2018-09-29T01:48:29.977Z,9.9
2018-09-29T01:49:31.327Z,9.8
2018-09-29T01:50:32.677Z,9.9
2018-09-29T01:51:34.035Z,9.9
2018-09-29T01:52:35.396Z,9.8
2018-09-29T01:53:36.751Z,9.8
2018-09-29T01:54:38.112Z,9.8
2018-09-29T01:55:39.508Z,9.8
2018-09-29T01:56:40.853Z,9.8
2018-09-29T01:57:42.227Z,9.7
2018-09-29T01:58:43.585Z,9.8
2018-09-29T01:59:44.937Z,9.8
2018-09-29T02:00:46.300Z,9.7
2018-09-29T02:01:47.665Z,9.7
2018-09-29T02:02:49.026Z,9.6
2018-09-29T02:03:50.386Z,9.7
2018-09-29T02:04:51.743Z,9.6
2018-09-29T02:05:53.119Z,9.6
2018-09-29T02:06:54.492Z,9.6
2018-09-29T02:07:55.863Z,9.5
2018-09-29T02:08:57.246Z,9.5
2018-09-29T02:09:58.600Z,9.5
2018-09-29T02:10:59.970Z,9.5
2018-09-29T02:12:01.331Z,9.4
2018-09-29T02:13:02.682Z,9.4
2018-09-29T02:14:04.040Z,9.3
2018-09-29T02:15:05.389Z,9.4
2018-09-29T02:16:06.740Z,9.3
2018-09-29T02:17:08.107Z,9.3
2018-09-29T02:18:09.488Z,9.2
2018-09-29T02:19:10.842Z,9.1
2018-09-29T02:20:12.207Z,9.2
2018-09-29T02:21:13.565Z,9.2
2018-09-29T02:22:14.918Z,9.1
2018-09-29T02:23:16.267Z,9.1
2018-09-29T02:24:17.632Z,9.1
2018-09-29T02:25:18.988Z,9.1
2018-09-29T02:26:20.356Z,9.1
2018-09-29T02:27:21.716Z,9.2
2018-09-29T02:28:23.070Z,9.1
2018-09-29T02:29:24.430Z,9.0
2018-09-29T02:30:25.791Z,9.0
2018-09-29T02:31:27.147Z,9.1
2018-09-29T02:32:28.507Z,9.2
2018-09-29T02:33:29.862Z,9.3
2018-09-29T02:34:31.222Z,9.3
2018-09-29T02:35:32.581Z,9.3
2018-09-29T02:36:33.927Z,9.2
2018-09-29T02:37:35.317Z,9.2
2018-09-29T02:38:36.686Z,9.1
2018-09-29T02:39:38.027Z,9.1
2018-09-29T02:40:39.388Z,8.9
2018-09-29T02:41:40.752Z,9.0
2018-09-29T02:42:42.106Z,9.0
2018-09-29T02:43:43.458Z,9.0
2018-09-29T02:44:44.809Z,8.9
2018-09-29T02:45:46.162Z,8.8
2018-09-29T02:46:47.530Z,8.9
2018-09-29T02:47:48.903Z,8.9
2018-09-29T02:48:50.245Z,9.0
2018-09-29T02:49:51.587Z,8.8
2018-09-29T02:50:52.946Z,9.0
2018-09-29T02:51:54.300Z,8.9
2018-09-29T02:52:55.662Z,9.0
2018-09-29T02:53:57.007Z,9.0
2018-09-29T02:54:58.367Z,8.9
2018-09-29T02:55:59.717Z,9.0
2018-09-29T02:57:01.075Z,9.1
2018-09-29T02:58:02.429Z,9.1
2018-09-29T02:59:03.777Z,9.2
2018-09-29T03:00:05.128Z,9.3
2018-09-29T03:01:06.479Z,9.4
2018-09-29T03:02:07.835Z,9.4
2018-09-29T03:03:09.185Z,9.5
2018-09-29T03:04:10.537Z,9.4
2018-09-29T03:05:11.895Z,9.4
2018-09-29T03:06:13.763Z,9.4
2018-09-29T03:07:15.216Z,9.4
2018-09-29T03:08:16.440Z,9.4
2018-09-29T03:09:17.797Z,9.5
2018-09-29T03:10:19.157Z,9.4
2018-09-29T03:11:20.506Z,9.4
2018-09-29T03:12:21.861Z,9.4
2018-09-29T03:13:23.231Z,9.4
2018-09-29T03:14:24.575Z,9.5
2018-09-29T03:15:25.934Z,9.4
2018-09-29T03:16:27.272Z,9.6
2018-09-29T03:17:28.638Z,9.7
2018-09-29T03:18:29.977Z,9.7
2018-09-29T03:19:31.325Z,9.7
2018-09-29T03:20:32.672Z,9.7
2018-09-29T03:21:34.026Z,9.7
2018-09-29T03:22:35.371Z,9.7
2018-09-29T03:23:36.726Z,9.7
2018-09-29T03:24:38.077Z,9.7
2018-09-29T03:25:39.442Z,9.6
2018-09-29T03:26:40.791Z,9.6
2018-09-29T03:27:42.167Z,9.5
2018-09-29T03:28:43.535Z,9.6
2018-09-29T03:29:44.884Z,9.5
2018-09-29T03:30:46.248Z,9.5
2018-09-29T03:31:47.720Z,9.4
2018-09-29T03:32:48.918Z,9.4
2018-09-29T03:33:50.266Z,9.4
2018-09-29T03:34:51.628Z,9.5
2018-09-29T03:35:53.000Z,9.6
2018-09-29T03:36:54.325Z,9.6
2018-09-29T03:37:55.691Z,9.6
2018-09-29T03:38:57.067Z,9.7
2018-09-29T03:39:58.421Z,9.7
2018-09-29T03:40:59.762Z,9.7
2018-09-29T03:42:01.119Z,9.7
2018-09-29T03:43:02.472Z,9.5
2018-09-29T03:44:04.439Z,9.6
2018-09-29T03:45:05.793Z,9.6
2018-09-29T03:46:07.152Z,9.6
2018-09-29T03:47:08.513Z,9.6
2018-09-29T03:48:09.874Z,9.5
2018-09-29T03:49:11.234Z,9.6
2018-09-29T03:50:12.592Z,9.6
2018-09-29T03:51:13.952Z,9.6
2018-09-29T03:52:15.312Z,9.6
2018-09-29T03:53:16.668Z,9.6
2018-09-29T03:54:18.012Z,9.6
2018-09-29T03:55:19.378Z,9.6
2018-09-29T03:56:43.486Z,9.6
2018-09-29T03:57:44.839Z,9.6
2018-09-29T03:58:46.183Z,9.6
2018-09-29T03:59:47.534Z,9.5
2018-09-29T04:00:48.897Z,9.5
2018-09-29T04:01:50.237Z,9.6
2018-09-29T04:02:51.593Z,9.5
2018-09-29T04:03:52.942Z,9.5
2018-09-29T04:04:54.303Z,9.5
2018-09-29T04:05:55.652Z,9.4
2018-09-29T04:06:57.008Z,9.5
2018-09-29T04:07:58.363Z,9.5
2018-09-29T04:08:59.712Z,9.4
2018-09-29T04:10:01.069Z,9.4
2018-09-29T04:11:02.436Z,9.4
2018-09-29T04:12:03.784Z,9.4
2018-09-29T04:13:05.137Z,9.4
2018-09-29T04:14:06.481Z,9.5
2018-09-29T04:15:07.840Z,9.5
2018-09-29T04:16:09.196Z,9.6
2018-09-29T04:17:10.553Z,9.6
2018-09-29T04:18:11.918Z,9.6
2018-09-29T04:19:13.267Z,9.6
2018-09-29T04:20:14.618Z,9.6
2018-09-29T04:21:15.972Z,9.5
2018-09-29T04:22:17.317Z,9.6
2018-09-29T04:23:18.674Z,9.5
2018-09-29T04:24:20.019Z,9.6
2018-09-29T04:25:21.381Z,9.6
2018-09-29T04:26:22.737Z,9.6
2018-09-29T04:27:24.093Z,9.5
2018-09-29T04:28:25.468Z,9.5
2018-09-29T04:29:26.823Z,9.5
2018-09-29T04:30:28.171Z,9.5
2018-09-29T04:31:29.546Z,9.4
2018-09-29T04:32:30.900Z,9.5
2018-09-29T04:33:32.256Z,9.5
2018-09-29T04:34:33.617Z,9.4
2018-09-29T04:35:34.966Z,9.6
2018-09-29T04:36:36.316Z,9.5
2018-09-29T04:37:37.676Z,9.5
2018-09-29T04:38:39.028Z,9.5
2018-09-29T04:39:40.385Z,9.4
2018-09-29T04:40:41.735Z,9.5
2018-09-29T04:41:43.081Z,9.4
2018-09-29T04:42:44.438Z,9.5
2018-09-29T04:43:45.791Z,9.4
2018-09-29T04:44:47.148Z,9.4
2018-09-29T04:45:48.500Z,9.4
2018-09-29T04:46:49.855Z,9.5
2018-09-29T04:47:51.208Z,9.4
2018-09-29T04:48:52.561Z,9.4
2018-09-29T04:49:53.915Z,9.3
2018-09-29T04:50:55.256Z,9.3
2018-09-29T04:51:56.616Z,9.4
2018-09-29T04:52:57.964Z,9.4
2018-09-29T04:53:59.313Z,9.3
2018-09-29T04:55:00.672Z,9.4
2018-09-29T04:56:02.036Z,9.4
2018-09-29T04:57:03.379Z,9.3
2018-09-29T04:58:04.743Z,9.3
2018-09-29T04:59:06.123Z,9.4
2018-09-29T05:00:07.496Z,9.2
2018-09-29T05:01:08.858Z,9.2
2018-09-29T05:02:10.222Z,9.3
2018-09-29T05:03:11.588Z,9.4
2018-09-29T05:04:12.947Z,9.3
2018-09-29T05:05:14.313Z,9.3
2018-09-29T05:06:15.673Z,9.4
2018-09-29T05:07:17.033Z,9.4
2018-09-29T05:08:18.403Z,9.3
2018-09-29T05:09:19.759Z,9.3
2018-09-29T05:10:21.104Z,9.4
2018-09-29T05:11:22.460Z,9.4
2018-09-29T05:12:23.807Z,9.2
2018-09-29T05:13:25.177Z,9.3
2018-09-29T05:14:26.534Z,9.3
2018-09-29T05:15:27.893Z,9.3
2018-09-29T05:16:29.243Z,9.2
2018-09-29T05:17:30.602Z,9.3
2018-09-29T05:18:31.957Z,9.1
2018-09-29T05:19:33.316Z,9.2
2018-09-29T05:20:34.681Z,9.2
2018-09-29T05:21:36.044Z,9.2
2018-09-29T05:22:37.396Z,9.1
2018-09-29T05:23:38.758Z,9.1
2018-09-29T05:24:40.122Z,9.1
2018-09-29T05:25:41.468Z,9.1
2018-09-29T05:26:42.822Z,9.1
2018-09-29T05:27:44.187Z,9.1
2018-09-29T05:28:45.548Z,9.1
2018-09-29T05:29:46.899Z,9.1
2018-09-29T05:30:48.265Z,9.1
2018-09-29T05:31:49.618Z,9.1
2018-09-29T05:32:50.967Z,9.1
2018-09-29T05:33:52.340Z,9.1
2018-09-29T05:34:53.692Z,9.1
2018-09-29T05:35:55.048Z,9.1
2018-09-29T05:36:56.398Z,9.1
2018-09-29T05:37:57.757Z,9.1
2018-09-29T05:38:59.117Z,9.1
2018-09-29T05:40:00.504Z,9.1
2018-09-29T05:41:01.864Z,9.1
2018-09-29T05:42:03.217Z,9.0
2018-09-29T05:43:04.575Z,9.0
2018-09-29T05:44:05.944Z,9.0
2018-09-29T05:45:07.297Z,8.9
2018-09-29T05:46:08.645Z,8.9
2018-09-29T05:47:10.017Z,9.0
2018-09-29T05:48:11.406Z,8.9
2018-09-29T05:49:12.748Z,9.1
2018-09-29T05:50:14.100Z,9.1
2018-09-29T05:51:15.455Z,9.1
2018-09-29T05:52:16.820Z,9.0
2018-09-29T05:53:18.173Z,9.0
2018-09-29T05:54:19.537Z,8.9
2018-09-29T05:55:20.888Z,9.1
2018-09-29T05:56:22.239Z,9.0
2018-09-29T05:57:23.608Z,9.0
2018-09-29T05:58:24.972Z,8.9
2018-09-29T05:59:26.323Z,9.0
2018-09-29T06:00:27.725Z,9.0
2018-09-29T06:01:29.050Z,8.9
2018-09-29T06:02:30.404Z,9.0
2018-09-29T06:03:31.764Z,9.0
2018-09-29T06:04:33.137Z,9.0
2018-09-29T06:05:35.242Z,9.0
2018-09-29T06:06:36.580Z,9.0
2018-09-29T06:07:38.405Z,9.0
2018-09-29T06:08:39.803Z,9.1
2018-09-29T06:09:41.196Z,9.0
2018-09-29T06:10:42.555Z,9.0
2018-09-29T06:11:43.919Z,9.0
2018-09-29T06:12:45.295Z,9.1
2018-09-29T06:13:46.651Z,9.0
2018-09-29T06:14:48.019Z,9.0
2018-09-29T06:15:49.382Z,9.0
2018-09-29T06:16:50.737Z,9.0
2018-09-29T06:17:52.108Z,9.1
2018-09-29T06:18:53.469Z,9.1
2018-09-29T06:19:54.840Z,9.1
2018-09-29T06:20:56.259Z,9.1
2018-09-29T06:21:57.520Z,9.1
2018-09-29T06:22:58.874Z,8.9
2018-09-29T06:24:00.266Z,9.0
2018-09-29T06:25:01.636Z,9.0
2018-09-29T06:26:03.050Z,9.0
2018-09-29T06:27:04.418Z,9.0
2018-09-29T06:28:05.793Z,9.0
2018-09-29T06:29:07.150Z,8.9
2018-09-29T06:30:08.513Z,9.0
2018-09-29T06:31:09.909Z,9.0
2018-09-29T06:32:13.444Z,8.9
2018-09-29T06:33:15.160Z,8.9
2018-09-29T06:34:23.391Z,8.9
2018-09-29T06:35:24.709Z,8.9
2018-09-29T06:36:26.070Z,8.9
2018-09-29T06:37:27.429Z,8.9
2018-09-29T06:38:28.790Z,8.8
2018-09-29T06:39:30.166Z,8.9
2018-09-29T06:40:31.529Z,8.8
2018-09-29T06:41:32.900Z,8.9
2018-09-29T06:42:34.264Z,8.9
2018-09-29T06:43:35.623Z,8.8
2018-09-29T06:44:36.976Z,8.9
2018-09-29T06:45:38.350Z,8.8
2018-09-29T06:46:39.705Z,8.9
2018-09-29T06:47:41.107Z,8.9
2018-09-29T06:48:42.423Z,8.9
2018-09-29T06:49:43.789Z,8.9
2018-09-29T06:50:45.149Z,9.0
2018-09-29T06:51:46.505Z,9.0
2018-09-29T06:52:47.873Z,9.0
2018-09-29T06:53:49.239Z,9.2
2018-09-29T06:54:50.652Z,9.4
2018-09-29T06:55:52.001Z,9.5
2018-09-29T06:56:53.365Z,9.7
2018-09-29T06:57:54.731Z,9.9
2018-09-29T06:58:56.088Z,10.1
2018-09-29T06:59:57.456Z,10.3
2018-09-29T07:00:58.834Z,10.4
2018-09-29T07:02:00.200Z,10.6
2018-09-29T07:03:01.625Z,10.7
2018-09-29T07:04:02.938Z,10.8
2018-09-29T07:05:04.310Z,10.9
2018-09-29T07:06:05.673Z,11.1
2018-09-29T07:07:07.033Z,11.2
2018-09-29T07:08:08.404Z,11.3
2018-09-29T07:09:09.778Z,11.3
2018-09-29T07:10:11.141Z,11.3
2018-09-29T07:11:12.506Z,11.4
2018-09-29T07:12:14.068Z,11.5
2018-09-29T07:13:16.661Z,11.5
2018-09-29T07:14:18.078Z,11.6
2018-09-29T07:15:19.597Z,11.8
2018-09-29T07:16:20.961Z,11.9
2018-09-29T07:17:22.331Z,11.9
2018-09-29T07:18:23.700Z,12.2
2018-09-29T07:19:25.071Z,12.3
2018-09-29T07:20:26.425Z,12.5
2018-09-29T07:21:27.826Z,12.5
2018-09-29T07:22:29.162Z,12.5
2018-09-29T07:23:30.526Z,12.6
2018-09-29T07:24:31.913Z,12.7
2018-09-29T07:25:33.358Z,12.9
2018-09-29T07:26:34.670Z,13.1
2018-09-29T07:27:36.076Z,13.2
2018-09-29T07:28:37.450Z,13.4
2018-09-29T07:29:38.824Z,13.5
2018-09-29T07:30:40.194Z,13.8
2018-09-29T07:31:41.568Z,13.8
2018-09-29T07:32:43.521Z,13.8
2018-09-29T07:33:44.895Z,13.9
2018-09-29T07:34:46.264Z,14.1
2018-09-29T07:35:47.618Z,14.1
2018-09-29T07:36:48.995Z,14.1
2018-09-29T07:37:50.370Z,14.1
2018-09-29T07:38:51.738Z,14.1
2018-09-29T07:39:53.119Z,14.2
2018-09-29T07:40:54.489Z,14.2
2018-09-29T07:41:55.861Z,14.3
2018-09-29T07:42:57.241Z,14.6
2018-09-29T07:43:58.619Z,14.8
2018-09-29T07:44:59.999Z,14.7
2018-09-29T07:46:01.370Z,14.6
2018-09-29T07:47:02.736Z,14.5
2018-09-29T07:48:04.111Z,14.5
2018-09-29T07:49:05.511Z,14.6
2018-09-29T07:50:06.854Z,14.7
2018-09-29T07:51:08.233Z,14.7
2018-09-29T07:52:09.610Z,14.7
2018-09-29T07:53:10.989Z,14.8
2018-09-29T07:54:12.373Z,14.6
2018-09-29T07:55:13.754Z,14.4
2018-09-29T07:56:15.190Z,14.3
2018-09-29T07:57:16.505Z,14.3
2018-09-29T07:58:17.865Z,14.5
2018-09-29T07:59:19.250Z,14.5
2018-09-29T08:00:20.619Z,14.5
2018-09-29T08:01:21.999Z,14.4
2018-09-29T08:02:23.365Z,14.5
2018-09-29T08:03:24.744Z,14.4
2018-09-29T08:04:26.119Z,14.4
2018-09-29T08:05:27.495Z,14.5
2018-09-29T08:06:29.071Z,14.5
2018-09-29T08:07:31.124Z,14.5
2018-09-29T08:08:32.506Z,14.7
2018-09-29T08:09:33.878Z,14.7
2018-09-29T08:10:35.264Z,14.8
2018-09-29T08:11:36.644Z,14.8
2018-09-29T08:12:38.021Z,14.8
2018-09-29T08:13:39.394Z,14.9
2018-09-29T08:14:40.794Z,15.0
2018-09-29T08:15:42.198Z,15.1
2018-09-29T08:16:44.353Z,15.2
2018-09-29T08:17:45.728Z,15.2
2018-09-29T08:18:47.097Z,15.2
2018-09-29T08:19:48.659Z,15.2
2018-09-29T08:20:50.035Z,15.2
2018-09-29T08:21:51.975Z,15.3
2018-09-29T08:22:53.356Z,15.4
2018-09-29T08:23:54.730Z,15.4
2018-09-29T08:24:56.106Z,15.4
2018-09-29T08:25:57.485Z,15.6
2018-09-29T08:26:58.860Z,15.8
2018-09-29T08:28:00.252Z,15.7
2018-09-29T08:29:01.625Z,15.7
2018-09-29T08:30:03.011Z,15.7
2018-09-29T08:31:04.386Z,15.6
2018-09-29T08:32:05.755Z,15.6
2018-09-29T08:33:07.125Z,15.8
2018-09-29T08:34:08.504Z,15.8
2018-09-29T08:35:09.872Z,15.7
2018-09-29T08:36:11.260Z,15.7
2018-09-29T08:37:12.629Z,15.8
2018-09-29T08:38:13.998Z,15.7
2018-09-29T08:39:15.366Z,15.6
2018-09-29T08:40:16.758Z,15.4
2018-09-29T08:41:18.130Z,15.4
2018-09-29T08:42:19.506Z,15.6
2018-09-29T08:43:20.883Z,15.6
2018-09-29T08:44:22.257Z,15.6
2018-09-29T08:45:23.637Z,15.7
2018-09-29T08:46:25.038Z,15.7
2018-09-29T08:47:26.449Z,15.8
2018-09-29T08:48:27.820Z,15.9
2018-09-29T08:49:29.860Z,16.1
2018-09-29T08:50:31.238Z,16.1
2018-09-29T08:51:32.619Z,16.2
2018-09-29T08:52:33.990Z,16.1
2018-09-29T08:53:35.405Z,16.1
2018-09-29T08:54:36.710Z,16.0
2018-09-29T08:55:38.076Z,16.1
2018-09-29T08:56:39.459Z,16.0
2018-09-29T08:57:40.840Z,16.0
2018-09-29T08:58:42.655Z,16.0
2018-09-29T08:59:43.920Z,16.0
2018-09-29T09:00:45.301Z,15.7
2018-09-29T09:01:46.684Z,15.3
2018-09-29T09:02:48.176Z,15.2
2018-09-29T09:03:49.611Z,15.1
2018-09-29T09:04:50.924Z,15.1
2018-09-29T09:05:52.311Z,15.2
2018-09-29T09:06:53.702Z,15.3
2018-09-29T09:07:55.075Z,15.2
2018-09-29T09:08:56.450Z,15.4
2018-09-29T09:09:57.862Z,15.3
2018-09-29T09:10:59.209Z,15.3
2018-09-29T09:12:00.604Z,15.3
2018-09-29T09:13:01.990Z,15.3
2018-09-29T09:14:03.372Z,15.2
2018-09-29T09:15:04.765Z,15.1
2018-09-29T09:16:06.136Z,15.2
2018-09-29T09:17:07.511Z,15.2
2018-09-29T09:18:08.885Z,15.2
2018-09-29T09:19:10.256Z,15.2
2018-09-29T09:20:11.641Z,15.3
2018-09-29T09:21:13.012Z,15.4
2018-09-29T09:22:14.391Z,15.4
2018-09-29T09:23:15.817Z,15.4
2018-09-29T09:24:17.183Z,15.4
2018-09-29T09:25:18.505Z,15.4
2018-09-29T09:26:19.874Z,15.3
2018-09-29T09:27:21.256Z,15.2
2018-09-29T09:28:22.640Z,15.4
2018-09-29T09:29:24.021Z,15.4
2018-09-29T09:30:25.409Z,15.7
2018-09-29T09:31:26.785Z,15.7
2018-09-29T09:32:28.161Z,15.9
2018-09-29T09:33:29.541Z,15.7
2018-09-29T09:34:30.910Z,15.5
2018-09-29T09:35:32.287Z,15.4
2018-09-29T09:36:33.682Z,15.2
2018-09-29T09:37:35.050Z,15.2
2018-09-29T09:38:36.424Z,15.2
2018-09-29T09:39:37.804Z,15.3
2018-09-29T09:40:39.205Z,15.4
2018-09-29T09:41:40.586Z,15.6
2018-09-29T09:42:41.960Z,15.6
2018-09-29T09:43:43.341Z,15.4
2018-09-29T09:44:44.706Z,15.4
2018-09-29T09:45:46.091Z,15.5
2018-09-29T09:46:47.486Z,15.4
2018-09-29T09:47:48.858Z,15.6
2018-09-29T09:48:50.240Z,15.7
2018-09-29T09:49:51.619Z,15.6
2018-09-29T09:50:53.004Z,15.5
2018-09-29T09:51:54.371Z,15.6
2018-09-29T09:52:55.745Z,15.6
2018-09-29T09:53:57.125Z,15.6
2018-09-29T09:54:59.275Z,15.5
2018-09-29T09:56:00.709Z,15.5
2018-09-29T09:57:02.007Z,15.7
2018-09-29T09:58:03.376Z,15.8
2018-09-29T09:59:04.757Z,15.8
2018-09-29T10:00:06.125Z,15.7
2018-09-29T10:01:07.526Z,15.8
2018-09-29T10:02:08.896Z,15.9
2018-09-29T10:03:10.267Z,15.9
2018-09-29T10:04:11.647Z,15.9
2018-09-29T10:05:13.044Z,16.0
2018-09-29T10:06:14.424Z,16.0
2018-09-29T10:07:15.808Z,16.0
2018-09-29T10:08:17.181Z,15.9
2018-09-29T10:09:18.557Z,15.8
2018-09-29T10:10:19.936Z,15.8
2018-09-29T10:11:21.306Z,15.8
2018-09-29T10:12:22.695Z,15.8
2018-09-29T10:13:24.078Z,15.8
2018-09-29T10:14:25.458Z,15.9
2018-09-29T10:15:27.656Z,16.0
2018-09-29T10:16:29.042Z,16.1
2018-09-29T10:17:30.486Z,16.1
2018-09-29T10:18:31.767Z,16.1
2018-09-29T10:19:33.140Z,16.1
2018-09-29T10:20:34.516Z,16.2
2018-09-29T10:21:35.908Z,16.3
2018-09-29T10:22:37.301Z,16.5
2018-09-29T10:23:38.687Z,16.6
2018-09-29T10:24:40.071Z,16.5
2018-09-29T10:25:41.446Z,16.4
2018-09-29T10:26:42.824Z,16.5
2018-09-29T10:27:44.250Z,16.5
2018-09-29T10:28:45.782Z,16.4
2018-09-29T10:29:47.301Z,16.5
2018-09-29T10:30:48.963Z,16.5
2018-09-29T10:31:50.341Z,16.6
2018-09-29T10:32:51.742Z,16.5
2018-09-29T10:33:53.122Z,16.6
2018-09-29T10:34:54.499Z,16.8
2018-09-29T10:35:55.885Z,16.6
2018-09-29T10:36:57.260Z,16.6
2018-09-29T10:37:58.655Z,16.6
2018-09-29T10:39:00.137Z,17.0
2018-09-29T10:40:01.701Z,17.1
2018-09-29T10:41:03.086Z,17.2
2018-09-29T10:42:04.466Z,17.3
2018-09-29T10:43:05.843Z,17.2
2018-09-29T10:44:07.287Z,17.2
2018-09-29T10:45:08.558Z,17.1
2018-09-29T10:46:09.948Z,17.2
2018-09-29T10:47:11.331Z,17.2
2018-09-29T10:48:12.714Z,17.2
2018-09-29T10:49:14.056Z,17.2
2018-09-29T10:50:15.437Z,17.3
2018-09-29T10:51:16.828Z,17.3
2018-09-29T10:52:18.196Z,17.4
2018-09-29T10:53:19.584Z,17.4
2018-09-29T10:54:20.985Z,17.4
2018-09-29T10:55:22.362Z,17.6
2018-09-29T10:56:23.747Z,17.8
2018-09-29T10:57:25.118Z,17.5
2018-09-29T10:58:26.502Z,17.3
2018-09-29T10:59:27.885Z,17.3
2018-09-29T11:00:29.261Z,17.3
2018-09-29T11:01:30.651Z,17.0
2018-09-29T11:02:32.029Z,16.9
2018-09-29T11:03:33.411Z,16.9
2018-09-29T11:04:34.797Z,17.1
2018-09-29T11:05:36.223Z,17.2
2018-09-29T11:06:37.655Z,17.2
2018-09-29T11:07:39.053Z,17.5
2018-09-29T11:08:40.427Z,17.7
2018-09-29T11:09:43.488Z,17.8
2018-09-29T11:10:44.167Z,17.9
2018-09-29T11:11:45.557Z,17.8
2018-09-29T11:12:46.954Z,17.6
2018-09-29T11:13:48.334Z,17.4
2018-09-29T11:14:49.710Z,17.4
2018-09-29T11:15:51.102Z,17.2
2018-09-29T11:16:52.527Z,17.3
2018-09-29T11:17:53.895Z,17.3
2018-09-29T11:18:55.281Z,17.4
2018-09-29T11:19:56.647Z,17.5
2018-09-29T11:20:58.114Z,17.6
2018-09-29T11:21:59.417Z,17.6
2018-09-29T11:23:00.803Z,17.8
2018-09-29T11:24:02.181Z,17.7
2018-09-29T11:25:03.560Z,17.8
2018-09-29T11:26:04.942Z,18.0
2018-09-29T11:27:06.316Z,18.2
2018-09-29T11:28:07.710Z,18.3
2018-09-29T11:29:09.096Z,18.3
2018-09-29T11:30:10.456Z,18.3
2018-09-29T11:31:12.341Z,18.3
2018-09-29T11:32:14.394Z,18.4
2018-09-29T11:33:15.786Z,18.5
2018-09-29T11:34:17.175Z,18.2
2018-09-29T11:35:18.552Z,18.3
2018-09-29T11:36:19.942Z,18.4
2018-09-29T11:37:21.319Z,18.5
2018-09-29T11:38:22.692Z,18.5
2018-09-29T11:39:24.205Z,18.5
2018-09-29T11:40:25.535Z,18.5
2018-09-29T11:41:26.892Z,18.6
2018-09-29T11:42:28.282Z,18.6
2018-09-29T11:43:29.774Z,18.2
2018-09-29T11:44:31.145Z,18.0
2018-09-29T11:45:32.534Z,17.8
2018-09-29T11:46:33.898Z,17.7
2018-09-29T11:47:35.342Z,17.9
2018-09-29T11:48:36.724Z,17.9
2018-09-29T11:49:38.101Z,18.0
2018-09-29T11:50:39.487Z,18.0
2018-09-29T11:51:40.862Z,17.9
2018-09-29T11:52:42.241Z,17.9
2018-09-29T11:53:43.648Z,18.0
2018-09-29T11:54:45.028Z,18.0
2018-09-29T11:55:46.427Z,18.0
2018-09-29T11:56:47.818Z,18.1
2018-09-29T11:57:49.187Z,18.2
2018-09-29T11:58:50.606Z,18.3
2018-09-29T11:59:51.982Z,18.3
2018-09-29T12:00:53.366Z,18.3
2018-09-29T12:01:54.787Z,18.5
2018-09-29T12:02:56.181Z,18.4
2018-09-29T12:03:57.570Z,18.4
2018-09-29T12:04:58.952Z,18.5
2018-09-29T12:06:00.385Z,18.5
2018-09-29T12:07:01.779Z,18.6
2018-09-29T12:08:03.098Z,18.6
2018-09-29T12:09:04.453Z,18.6
2018-09-29T12:10:05.833Z,18.7
2018-09-29T12:11:07.272Z,18.7
2018-09-29T12:12:08.642Z,18.7
2018-09-29T12:13:10.029Z,18.8
2018-09-29T12:14:11.971Z,19.0
2018-09-29T12:15:13.363Z,19.0
2018-09-29T12:16:14.746Z,19.0
2018-09-29T12:17:16.158Z,19.2
2018-09-29T12:18:17.567Z,19.2
2018-09-29T12:19:18.953Z,19.1
2018-09-29T12:20:20.375Z,19.1
2018-09-29T12:21:21.771Z,19.0
2018-09-29T12:22:23.209Z,18.8
2018-09-29T12:23:24.482Z,18.8
2018-09-29T12:24:25.858Z,18.6
2018-09-29T12:25:27.256Z,18.6
2018-09-29T12:26:28.642Z,18.5
2018-09-29T12:27:30.008Z,18.6
2018-09-29T12:28:31.400Z,18.6
2018-09-29T12:29:32.810Z,18.7
2018-09-29T12:30:34.144Z,18.7
2018-09-29T12:31:35.543Z,18.7
2018-09-29T12:32:36.928Z,18.8
2018-09-29T12:33:38.307Z,18.8
2018-09-29T12:34:39.701Z,18.9
2018-09-29T12:35:41.079Z,19.0
2018-09-29T12:36:42.505Z,19.0
2018-09-29T12:37:44.059Z,19.0
2018-09-29T12:38:45.279Z,19.1
2018-09-29T12:39:46.665Z,19.1
2018-09-29T12:40:48.062Z,19.2
2018-09-29T12:41:49.434Z,19.4
2018-09-29T12:42:50.821Z,19.3
2018-09-29T12:43:52.196Z,19.4
2018-09-29T12:44:53.627Z,19.4
2018-09-29T12:45:54.912Z,19.4
2018-09-29T12:46:56.298Z,19.6
2018-09-29T12:47:57.669Z,19.6
2018-09-29T12:48:59.056Z,19.5
2018-09-29T12:50:00.436Z,19.7
2018-09-29T12:51:01.821Z,19.7
2018-09-29T12:52:03.284Z,19.7
2018-09-29T12:53:04.624Z,19.7
2018-09-29T12:54:06.008Z,19.7
2018-09-29T12:55:07.389Z,19.5
2018-09-29T12:56:08.761Z,19.2
2018-09-29T12:57:11.008Z,19.0
2018-09-29T12:58:12.391Z,18.8
2018-09-29T12:59:13.772Z,18.8
2018-09-29T13:00:15.152Z,18.7
2018-09-29T13:01:16.548Z,18.7
2018-09-29T13:02:17.923Z,18.9
2018-09-29T13:03:19.318Z,19.0
2018-09-29T13:04:20.691Z,19.2
2018-09-29T13:05:22.149Z,19.1
2018-09-29T13:06:23.472Z,19.3
2018-09-29T13:07:24.859Z,19.4
2018-09-29T13:08:26.236Z,19.4
2018-09-29T13:09:27.622Z,19.5
2018-09-29T13:10:29.011Z,19.5
2018-09-29T13:11:30.413Z,19.7
2018-09-29T13:12:31.826Z,19.8
2018-09-29T13:13:33.208Z,19.7
2018-09-29T13:14:34.606Z,19.6
2018-09-29T13:15:35.989Z,19.4
2018-09-29T13:16:37.377Z,19.5
2018-09-29T13:17:38.762Z,19.3
2018-09-29T13:18:40.714Z,19.1
2018-09-29T13:19:42.098Z,19.1
2018-09-29T13:20:43.481Z,19.1
2018-09-29T13:21:44.872Z,19.0
2018-09-29T13:22:46.302Z,18.9
2018-09-29T13:23:47.635Z,18.9
2018-09-29T13:24:49.016Z,18.9
2018-09-29T13:25:50.399Z,18.9
2018-09-29T13:26:51.773Z,18.8
2018-09-29T13:27:53.158Z,18.7
2018-09-29T13:28:54.537Z,18.7
2018-09-29T13:29:55.915Z,18.8
2018-09-29T13:30:57.294Z,18.9
2018-09-29T13:31:58.784Z,19.1
2018-09-29T13:33:00.087Z,19.1
2018-09-29T13:34:01.467Z,19.1
2018-09-29T13:35:02.850Z,19.1
2018-09-29T13:36:04.241Z,19.2
2018-09-29T13:37:05.695Z,19.3
2018-09-29T13:38:07.013Z,19.4
2018-09-29T13:39:08.384Z,19.4
2018-09-29T13:40:09.774Z,19.4
2018-09-29T13:41:11.144Z,19.4
2018-09-29T13:42:12.518Z,19.3
2018-09-29T13:43:13.894Z,19.3
2018-09-29T13:44:15.276Z,19.3
2018-09-29T13:45:16.671Z,19.2
2018-09-29T13:46:18.063Z,19.2
2018-09-29T13:47:19.439Z,19.1
2018-09-29T13:48:20.818Z,18.9
2018-09-29T13:49:22.204Z,18.7